Time;durP1;ratioP1;P1;durP2;ratioP2;P2;SDS_P1;SDS_P2;PMS_P1;PMS_P2;Temp;Humidity;BMP_temperature;BMP_pressure;BME280_temperature;BME280_humidity;BME280_pressure;Samples;Min_cycle;Max_cycle;Signal;HPM_P1;HPM_P2
2020/12/19 00:02:23;;;;;;;28.13;12.37;;;;;;;2.36;100.00;96828.06;5000081;28;20213;-72
2020/12/19 00:04:49;;;;;;;48.73;12.20;;;;;;;2.41;100.00;96829.38;5001269;28;20743;-72
2020/12/19 00:07:15;;;;;;;37.47;11.20;;;;;;;2.48;100.00;96828.00;4999513;28;20217;-72
2020/12/19 00:09:41;;;;;;;42.40;12.83;;;;;;;2.54;100.00;96809.31;5000860;28;20260;-72
2020/12/19 00:12:07;;;;;;;38.30;12.77;;;;;;;2.48;100.00;96811.53;4999921;28;21156;-72
2020/12/19 00:14:34;;;;;;;53.17;13.63;;;;;;;2.37;100.00;96815.88;5000232;28;20665;-71
2020/12/19 00:17:00;;;;;;;76.07;12.87;;;;;;;2.33;100.00;96798.84;4999416;28;20206;-71
2020/12/19 00:19:26;;;;;;;127.30;16.20;;;;;;;2.25;100.00;96801.19;5000277;28;20202;-72
2020/12/19 00:21:52;;;;;;;56.50;13.07;;;;;;;2.35;100.00;96790.00;5000231;28;20605;-72
2020/12/19 00:24:18;;;;;;;50.10;12.77;;;;;;;2.42;100.00;96794.63;4999826;28;20211;-71
2020/12/19 00:26:43;;;;;;;36.17;12.67;;;;;;;2.53;100.00;96793.81;4999705;28;20297;-71
2020/12/19 00:29:11;;;;;;;109.77;13.73;;;;;;;2.35;100.00;96784.78;4999708;28;20762;-71
2020/12/19 00:31:39;;;;;;;41.23;12.97;;;;;;;2.35;100.00;96789.19;5000141;28;20523;-72
2020/12/19 00:34:06;;;;;;;85.03;13.63;;;;;;;2.33;100.00;96794.50;5000304;28;20210;-71
2020/12/19 00:36:32;;;;;;;41.10;14.43;;;;;;;2.39;100.00;96790.59;4999569;28;20202;-72
2020/12/19 00:38:58;;;;;;;33.00;12.67;;;;;;;2.54;100.00;96790.28;4999880;28;20206;-71
2020/12/19 00:41:26;;;;;;;76.00;13.60;;;;;;;2.39;100.00;96793.19;5000320;28;20234;-71
2020/12/19 00:43:53;;;;;;;34.37;13.10;;;;;;;2.45;100.00;96793.56;4999162;28;20220;-72
2020/12/19 00:46:19;;;;;;;109.23;14.47;;;;;;;2.43;100.00;96780.69;4998458;28;20217;-71
2020/12/19 00:48:46;;;;;;;89.97;13.47;;;;;;;2.28;100.00;96785.34;5000558;28;20198;-71
2020/12/19 00:51:13;;;;;;;113.67;13.83;;;;;;;2.17;100.00;96774.94;4999445;28;20225;-71
2020/12/19 00:53:39;;;;;;;122.23;14.77;;;;;;;2.05;100.00;96784.47;4998500;28;20206;-72
2020/12/19 00:56:05;;;;;;;55.77;13.63;;;;;;;2.21;100.00;96778.97;4999130;28;20206;-72
2020/12/19 00:58:31;;;;;;;52.17;13.50;;;;;;;2.32;100.00;96772.03;4999474;28;20736;-71
2020/12/19 01:00:57;;;;;;;134.73;14.13;;;;;;;2.38;100.00;96771.59;4997770;28;20599;-71
2020/12/19 01:03:23;;;;;;;51.83;13.43;;;;;;;2.36;100.00;96767.44;4999413;28;20202;-71
2020/12/19 01:05:50;;;;;;;99.73;14.20;;;;;;;2.34;100.00;96774.50;4998806;28;20209;-72
2020/12/19 01:08:16;;;;;;;89.97;14.57;;;;;;;2.25;100.00;96776.00;4998648;28;20731;-72
2020/12/19 01:10:42;;;;;;;43.17;12.87;;;;;;;2.29;100.00;96779.22;4999247;28;20218;-72
2020/12/19 01:13:08;;;;;;;124.20;14.43;;;;;;;2.31;100.00;96779.94;4998770;28;20297;-71
2020/12/19 01:15:34;;;;;;;141.70;14.20;;;;;;;2.07;100.00;96773.97;4998284;28;20940;-72
2020/12/19 01:18:00;;;;;;;189.10;14.40;;;;;;;2.09;100.00;96774.69;4999403;28;20768;-71
2020/12/19 01:20:26;;;;;;;161.43;15.33;;;;;;;1.99;100.00;96768.50;4999190;28;20249;-71
2020/12/19 01:22:52;;;;;;;66.37;13.10;;;;;;;1.98;100.00;96772.03;4999140;28;20206;-71
2020/12/19 01:25:18;;;;;;;61.20;14.67;;;;;;;2.07;100.00;96782.56;4997927;28;20288;-71
2020/12/19 01:27:44;;;;;;;113.50;14.70;;;;;;;1.90;100.00;96782.16;4998805;28;20211;-72
2020/12/19 01:30:10;;;;;;;126.07;14.97;;;;;;;1.88;100.00;96773.66;4998448;28;20294;-72
2020/12/19 01:32:36;;;;;;;157.53;15.60;;;;;;;1.98;100.00;96778.06;4998922;28;20333;-71
2020/12/19 01:35:02;;;;;;;101.27;14.70;;;;;;;2.09;100.00;96777.28;4997986;28;20206;-72
2020/12/19 01:37:28;;;;;;;63.07;13.87;;;;;;;2.06;100.00;96782.69;4998898;28;20256;-72
2020/12/19 01:39:55;;;;;;;59.40;14.30;;;;;;;2.19;100.00;96778.25;4998459;28;20202;-71
2020/12/19 01:42:21;;;;;;;73.13;14.63;;;;;;;2.26;100.00;96776.84;4998511;28;20230;-71
2020/12/19 01:44:47;;;;;;;85.10;13.73;;;;;;;2.32;100.00;96776.38;4998889;28;20234;-71
2020/12/19 01:47:14;;;;;;;47.23;12.90;;;;;;;2.35;100.00;96766.59;4997452;28;20230;-71
2020/12/19 01:49:41;;;;;;;53.27;13.57;;;;;;;2.25;100.00;96765.63;4998958;28;20325;-72
2020/12/19 01:52:07;;;;;;;85.20;13.27;;;;;;;2.28;100.00;96764.56;4998692;28;20226;-72
2020/12/19 01:54:33;;;;;;;102.10;13.30;;;;;;;2.24;100.00;96763.13;4997926;28;20207;-71
2020/12/19 01:57:01;;;;;;;37.33;12.80;;;;;;;2.17;100.00;96762.75;4997644;28;20689;-71
2020/12/19 01:59:29;;;;;;;94.13;13.20;;;;;;;2.18;100.00;96761.00;4998994;28;20650;-71
2020/12/19 02:01:57;;;;;;;81.73;11.83;;;;;;;2.01;100.00;96764.84;4997931;28;20233;-72
2020/12/19 02:04:24;;;;;;;71.77;12.47;;;;;;;1.79;100.00;96758.72;4997956;28;20206;-72
2020/12/19 02:06:52;;;;;;;93.20;12.80;;;;;;;1.66;100.00;96764.94;4997554;28;20202;-71
2020/12/19 02:09:20;;;;;;;37.77;12.60;;;;;;;1.85;100.00;96760.88;4998401;28;20208;-71
2020/12/19 02:11:47;;;;;;;56.90;13.57;;;;;;;1.87;100.00;96765.03;4997429;28;20227;-72
2020/12/19 02:14:14;;;;;;;38.27;12.50;;;;;;;2.03;100.00;96762.13;4997918;28;20205;-71
2020/12/19 02:16:52;;;;;;;76.53;12.47;;;;;;;1.90;100.00;96767.41;4997412;28;20198;-71
2020/12/19 02:19:18;;;;;;;86.70;12.57;;;;;;;1.91;100.00;96761.25;4997897;28;20329;-71
2020/12/19 02:21:44;;;;;;;85.23;12.00;;;;;;;1.75;100.00;96756.47;4997506;28;20858;-71
2020/12/19 02:24:11;;;;;;;39.53;11.90;;;;;;;1.80;100.00;96750.00;4997406;28;20245;-72
2020/12/19 02:26:37;;;;;;;43.53;12.33;;;;;;;1.88;100.00;96748.50;4996932;28;21276;-71
2020/12/19 02:29:04;;;;;;;85.50;12.60;;;;;;;1.75;100.00;96748.69;4998053;28;20289;-71
2020/12/19 02:31:29;;;;;;;43.40;11.80;;;;;;;1.86;100.00;96750.38;4997575;28;20222;-71
2020/12/19 02:33:55;;;;;;;61.13;11.60;;;;;;;1.77;100.00;96747.63;4997856;28;21157;-71
2020/12/19 02:36:21;;;;;;;63.30;11.17;;;;;;;1.78;100.00;96743.25;4997139;28;20993;-71
2020/12/19 02:38:47;;;;;;;59.33;10.50;;;;;;;1.65;100.00;96745.91;4997832;28;20203;-71
2020/12/19 02:41:14;;;;;;;49.10;10.50;;;;;;;1.48;100.00;96759.28;4996875;28;20253;-71
2020/12/19 02:43:40;;;;;;;27.47;10.77;;;;;;;1.56;100.00;96746.56;4997803;28;20256;-71
2020/12/19 02:46:06;;;;;;;39.63;11.60;;;;;;;1.67;100.00;96745.78;4996790;28;20760;-71
2020/12/19 02:48:32;;;;;;;40.37;11.40;;;;;;;1.79;100.00;96745.72;4997515;28;20222;-72
2020/12/19 02:50:58;;;;;;;64.97;11.97;;;;;;;1.87;100.00;96748.59;4997651;28;20262;-72
2020/12/19 02:53:24;;;;;;;37.00;11.27;;;;;;;1.82;100.00;96745.53;4997493;28;20203;-71
2020/12/19 02:55:50;;;;;;;77.73;11.73;;;;;;;1.84;100.00;96738.44;4997332;28;20206;-72
2020/12/19 02:58:17;;;;;;;36.30;10.73;;;;;;;1.87;100.00;96738.19;4997306;28;20209;-71
2020/12/19 03:00:42;;;;;;;62.70;11.57;;;;;;;1.86;100.00;96742.59;4997895;28;20230;-71
2020/12/19 03:03:08;;;;;;;80.87;12.20;;;;;;;1.85;100.00;96742.69;4997156;28;20269;-72
2020/12/19 03:05:34;;;;;;;75.30;12.13;;;;;;;1.83;100.00;96736.78;4996851;28;20198;-71
2020/12/19 03:08:00;;;;;;;35.00;10.10;;;;;;;1.86;100.00;96742.59;4997068;28;20222;-72
2020/12/19 03:10:26;;;;;;;50.90;11.03;;;;;;;1.79;100.00;96745.72;4998089;28;20222;-71
2020/12/19 03:12:52;;;;;;;42.10;10.83;;;;;;;1.78;100.00;96738.88;4996910;28;20256;-71
2020/12/19 03:15:19;;;;;;;26.40;10.67;;;;;;;1.80;100.00;96739.59;4996479;28;20206;-71
2020/12/19 03:17:45;;;;;;;47.93;10.57;;;;;;;1.94;100.00;96736.81;4997460;28;20248;-71
2020/12/19 03:20:11;;;;;;;29.03;10.80;;;;;;;1.96;100.00;96733.19;4997050;28;20223;-71
2020/12/19 03:22:37;;;;;;;36.17;10.27;;;;;;;1.77;100.00;96733.78;4996837;28;20226;-71
2020/12/19 03:25:03;;;;;;;29.20;10.77;;;;;;;1.88;100.00;96734.66;4999960;28;20213;-72
2020/12/19 03:27:29;;;;;;;44.77;10.10;;;;;;;1.83;100.00;96722.03;5001761;28;20198;-71
2020/12/19 03:29:55;;;;;;;39.93;10.53;;;;;;;1.68;100.00;96722.31;5001337;28;20206;-71
2020/12/19 03:32:21;;;;;;;32.07;10.67;;;;;;;1.67;100.00;96727.59;5000063;28;20290;-71
2020/12/19 03:34:47;;;;;;;44.27;11.00;;;;;;;1.53;100.00;96723.44;5001486;28;20210;-72
2020/12/19 03:37:13;;;;;;;30.60;10.37;;;;;;;1.73;100.00;96720.19;4998915;28;20229;-71
2020/12/19 03:39:39;;;;;;;25.37;9.87;;;;;;;1.85;100.00;96707.13;5000591;28;20265;-71
2020/12/19 03:42:05;;;;;;;31.57;10.10;;;;;;;1.81;100.00;96720.50;5000649;28;20230;-71
2020/12/19 03:44:31;;;;;;;27.40;9.43;;;;;;;1.74;100.00;96708.88;5000310;28;20198;-71
2020/12/19 03:46:57;;;;;;;30.53;10.03;;;;;;;1.65;100.00;96708.72;4999988;28;20210;-71
2020/12/19 03:49:24;;;;;;;23.70;9.70;;;;;;;1.55;100.00;96710.34;5000474;28;20257;-71
2020/12/19 03:51:50;;;;;;;61.17;9.93;;;;;;;1.15;100.00;96710.72;5000816;28;20226;-71
2020/12/19 03:54:16;;;;;;;52.27;9.93;;;;;;;1.05;100.00;96702.75;5000709;28;20550;-71
2020/12/19 03:56:42;;;;;;;36.03;9.30;;;;;;;1.14;100.00;96703.88;5000104;28;20257;-71
2020/12/19 03:59:08;;;;;;;34.07;9.90;;;;;;;1.16;100.00;96697.63;5000343;28;20309;-72
2020/12/19 04:01:34;;;;;;;32.87;10.37;;;;;;;1.32;100.00;96698.19;5000585;28;20268;-71
2020/12/19 04:04:00;;;;;;;36.93;10.10;;;;;;;1.37;100.00;96702.09;4999816;28;20618;-71
2020/12/19 04:06:26;;;;;;;38.00;10.00;;;;;;;1.16;100.00;96701.97;4999986;28;20685;-71
2020/12/19 04:08:52;;;;;;;27.50;10.07;;;;;;;1.28;100.00;96697.56;5000566;28;20300;-72
2020/12/19 04:11:18;;;;;;;27.73;9.50;;;;;;;1.40;100.00;96696.69;5000315;28;20846;-71
2020/12/19 04:13:44;;;;;;;19.87;9.67;;;;;;;1.51;100.00;96698.50;5000429;28;20206;-71
2020/12/19 04:16:10;;;;;;;53.20;11.00;;;;;;;1.50;100.00;96696.84;5000019;28;20249;-71
2020/12/19 04:18:36;;;;;;;49.77;10.33;;;;;;;1.53;100.00;96699.25;5000118;28;20604;-71
2020/12/19 04:21:05;;;;;;;20.83;10.00;;;;;;;1.44;100.00;96698.13;5000130;28;20291;-71
2020/12/19 04:23:32;;;;;;;30.33;9.90;;;;;;;1.52;100.00;96700.19;5000507;28;20202;-71
2020/12/19 04:25:59;;;;;;;47.43;10.17;;;;;;;1.57;100.00;96708.47;4999133;28;20210;-71
2020/12/19 04:28:25;;;;;;;28.57;9.47;;;;;;;1.53;100.00;96704.44;4999862;28;20205;-72
2020/12/19 04:30:51;;;;;;;54.10;10.80;;;;;;;1.47;100.00;96697.91;5000293;28;20233;-71
2020/12/19 04:33:17;;;;;;;30.67;10.50;;;;;;;1.49;100.00;96696.03;4999499;28;20206;-71
2020/12/19 04:35:43;;;;;;;18.20;9.30;;;;;;;1.61;100.00;96687.34;4998750;28;20210;-71
2020/12/19 04:38:09;;;;;;;33.63;10.10;;;;;;;1.48;100.00;96693.56;5000728;28;20211;-71
2020/12/19 04:40:36;;;;;;;26.43;10.60;;;;;;;1.46;100.00;96701.44;4999191;28;20349;-72
2020/12/19 04:43:13;;;;;;;35.67;10.77;;;;;;;1.22;100.00;96690.25;4999346;28;20971;-71
2020/12/19 04:45:39;;;;;;;29.50;10.57;;;;;;;1.30;100.00;96690.50;4999750;28;20206;-72
2020/12/19 04:48:05;;;;;;;46.73;11.13;;;;;;;1.32;100.00;96696.44;4999379;28;21062;-71
2020/12/19 04:50:32;;;;;;;35.80;11.50;;;;;;;1.30;100.00;96695.69;4999363;28;20240;-72
2020/12/19 04:52:58;;;;;;;50.50;11.43;;;;;;;1.36;100.00;96694.41;5000208;28;20202;-71
2020/12/19 04:55:25;;;;;;;47.77;11.60;;;;;;;1.29;100.00;96696.63;4998536;28;20203;-71
2020/12/19 04:57:57;;;;;;;25.77;10.70;;;;;;;1.34;100.00;96698.91;4999846;28;20210;-71
2020/12/19 05:00:23;;;;;;;34.47;10.23;;;;;;;1.41;100.00;96697.53;4999431;28;20296;-71
2020/12/19 05:02:49;;;;;;;54.10;11.23;;;;;;;1.47;100.00;96691.88;4999796;28;20348;-71
2020/12/19 05:05:15;;;;;;;27.60;10.40;;;;;;;1.44;100.00;96697.28;4998207;28;20233;-71
2020/12/19 05:07:41;;;;;;;28.57;11.17;;;;;;;1.29;100.00;96688.84;4999509;28;21154;-72
2020/12/19 05:10:06;;;;;;;26.23;10.40;;;;;;;1.22;100.00;96690.25;4998829;28;20268;-72
2020/12/19 05:12:34;;;;;;;27.80;12.17;;;;;;;1.19;100.00;96693.03;4999064;28;20729;-71
2020/12/19 05:15:01;;;;;;;27.67;11.93;;;;;;;1.31;100.00;96689.59;4998460;28;20210;-72
2020/12/19 05:17:27;;;;;;;28.73;11.10;;;;;;;1.44;100.00;96692.94;4999140;28;20206;-71
2020/12/19 05:19:53;;;;;;;22.70;12.20;;;;;;;1.59;100.00;96688.38;4999510;28;21237;-72
2020/12/19 05:22:20;;;;;;;18.57;10.33;;;;;;;1.63;100.00;96690.66;4998378;28;20222;-72
2020/12/19 05:24:46;;;;;;;38.43;11.07;;;;;;;1.35;100.00;96693.59;4999477;28;20218;-71
2020/12/19 05:27:12;;;;;;;18.27;9.60;;;;;;;1.30;100.00;96690.50;4998385;28;20213;-72
2020/12/19 05:29:38;;;;;;;22.83;10.10;;;;;;;1.32;100.00;96696.44;4999183;28;20321;-71
2020/12/19 05:32:05;;;;;;;29.63;11.33;;;;;;;1.37;100.00;96694.31;4998706;28;20222;-71
2020/12/19 05:34:31;;;;;;;19.83;10.77;;;;;;;1.48;100.00;96696.16;4999151;28;20206;-71
2020/12/19 05:36:58;;;;;;;22.57;10.03;;;;;;;1.50;100.00;96689.91;4997348;28;20268;-71
2020/12/19 05:39:24;;;;;;;25.07;10.30;;;;;;;1.43;100.00;96699.06;4999160;28;20565;-71
2020/12/19 05:41:51;;;;;;;20.57;11.00;;;;;;;1.47;100.00;96700.50;4997926;28;20261;-72
2020/12/19 05:44:22;;;;;;;30.33;10.30;;;;;;;1.48;100.00;96703.94;4998337;28;20667;-71
2020/12/19 05:46:49;;;;;;;21.40;11.03;;;;;;;1.58;100.00;96697.97;4996601;28;20210;-72
2020/12/19 05:49:16;;;;;;;16.27;10.33;;;;;;;1.64;100.00;96701.88;4999557;28;20552;-72
2020/12/19 05:51:44;;;;;;;33.97;10.70;;;;;;;1.53;100.00;96702.66;4997632;28;20265;-71
2020/12/19 05:54:11;;;;;;;22.00;10.53;;;;;;;1.44;100.00;96702.47;4997781;28;20210;-71
2020/12/19 05:56:40;;;;;;;29.30;10.10;;;;;;;1.59;100.00;96702.22;4997572;28;20206;-72
2020/12/19 05:59:10;;;;;;;30.20;10.37;;;;;;;1.45;100.00;96696.34;4998036;28;20202;-71
2020/12/19 06:01:39;;;;;;;18.93;9.67;;;;;;;1.43;100.00;96709.44;4997746;28;21234;-72
2020/12/19 06:04:07;;;;;;;19.57;9.57;;;;;;;1.50;100.00;96708.09;4997969;28;20673;-71
2020/12/19 06:06:38;;;;;;;25.33;9.57;;;;;;;1.29;100.00;96711.38;4998149;28;20209;-71
2020/12/19 06:09:04;;;;;;;27.50;8.97;;;;;;;1.25;100.00;96712.56;4997983;28;20242;-72
2020/12/19 06:11:37;;;;;;;19.37;9.37;;;;;;;1.10;100.00;96712.81;4998504;28;20233;-71
2020/12/19 06:14:08;;;;;;;28.60;9.60;;;;;;;1.02;100.00;96713.34;4998183;28;20198;-71
2020/12/19 06:16:38;;;;;;;29.40;9.97;;;;;;;0.95;100.00;96708.69;4997857;28;20209;-72
2020/12/19 06:19:14;;;;;;;20.00;10.23;;;;;;;0.94;100.00;96707.03;4998372;28;20195;-71
2020/12/19 06:21:50;;;;;;;24.73;10.47;;;;;;;1.02;100.00;96715.09;4997934;28;20345;-71
2020/12/19 06:24:45;;;;;;;17.70;10.10;;;;;;;1.14;100.00;96709.88;4997891;28;20205;-71
2020/12/19 06:27:27;;;;;;;36.97;10.03;;;;;;;1.14;100.00;96709.88;4997017;28;20993;-71
2020/12/19 06:29:53;;;;;;;25.03;10.80;;;;;;;1.21;100.00;96717.13;4998083;28;20211;-72
2020/12/19 06:32:20;;;;;;;19.93;10.77;;;;;;;1.32;100.00;96714.59;4997717;28;20199;-72
2020/12/19 06:34:58;;;;;;;35.27;11.07;;;;;;;1.16;100.00;96712.38;4997780;28;20206;-71
2020/12/19 06:37:26;;;;;;;24.00;9.80;;;;;;;0.82;100.00;96718.28;4997580;28;20234;-71
2020/12/19 06:40:12;;;;;;;31.37;10.40;;;;;;;0.87;100.00;96723.97;4997466;28;20206;-71
2020/12/19 06:42:38;;;;;;;29.40;10.70;;;;;;;1.01;100.00;96718.66;4997868;28;20288;-71
2020/12/19 06:45:23;;;;;;;20.40;10.13;;;;;;;1.08;100.00;96720.69;4997079;28;20349;-71
2020/12/19 06:47:50;;;;;;;30.20;10.47;;;;;;;1.16;100.00;96727.94;4997635;28;20217;-71
2020/12/19 06:50:16;;;;;;;28.00;9.63;;;;;;;1.12;100.00;96726.50;4997466;28;20222;-72
2020/12/19 06:52:53;;;;;;;24.50;9.67;;;;;;;1.05;100.00;96720.09;4997479;28;20213;-72
2020/12/19 06:55:20;;;;;;;18.23;10.07;;;;;;;0.89;100.00;96720.34;4996753;28;20237;-71
2020/12/19 06:57:50;;;;;;;17.07;10.33;;;;;;;0.97;100.00;96719.78;4997303;28;20213;-72
2020/12/19 07:00:18;;;;;;;20.00;10.37;;;;;;;0.97;100.00;96730.16;4997094;28;20659;-72
2020/12/19 07:02:52;;;;;;;28.37;10.07;;;;;;;0.96;100.00;96725.94;4997471;28;20230;-71
2020/12/19 07:05:20;;;;;;;18.13;10.43;;;;;;;1.01;100.00;96734.22;4996597;28;20229;-71
2020/12/19 07:07:46;;;;;;;19.30;9.40;;;;;;;0.95;100.00;96732.06;4997091;28;20245;-72
2020/12/19 07:10:13;;;;;;;26.60;9.90;;;;;;;0.58;100.00;96725.16;4997381;28;20226;-71
2020/12/19 07:12:40;;;;;;;27.77;10.37;;;;;;;0.52;100.00;96730.75;4997330;28;20207;-72
2020/12/19 07:15:08;;;;;;;18.40;10.20;;;;;;;0.75;100.00;96732.59;4996351;28;20203;-71
2020/12/19 07:17:46;;;;;;;18.03;9.70;;;;;;;0.91;100.00;96739.22;4997244;28;20753;-72
2020/12/19 07:20:12;;;;;;;23.00;10.37;;;;;;;0.95;100.00;96739.84;4997199;28;20248;-72
2020/12/19 07:22:38;;;;;;;16.23;9.37;;;;;;;1.08;100.00;96741.44;4997444;28;20245;-71
2020/12/19 07:25:04;;;;;;;23.20;10.80;;;;;;;1.10;100.00;96754.34;4995763;28;20199;-72
2020/12/19 07:27:31;;;;;;;31.63;10.40;;;;;;;1.02;100.00;96746.22;4997614;28;20201;-71
2020/12/19 07:29:58;;;;;;;33.23;11.23;;;;;;;0.82;100.00;96752.81;4996957;28;20209;-72
2020/12/19 07:32:24;;;;;;;23.03;10.80;;;;;;;0.85;100.00;96754.38;4995878;28;21331;-71
2020/12/19 07:34:52;;;;;;;19.00;10.47;;;;;;;0.75;100.00;96742.97;4996976;28;20214;-72
2020/12/19 07:37:19;;;;;;;37.43;11.20;;;;;;;0.73;100.00;96745.66;4997102;28;20271;-71
2020/12/19 07:39:45;;;;;;;30.07;11.20;;;;;;;0.60;100.00;96749.22;4995318;28;20203;-72
2020/12/19 07:42:11;;;;;;;28.83;11.53;;;;;;;0.82;100.00;96747.63;4996797;28;20638;-72
2020/12/19 07:44:39;;;;;;;22.07;10.40;;;;;;;0.74;100.00;96746.53;4997177;28;20216;-72
2020/12/19 07:47:07;;;;;;;29.47;10.60;;;;;;;0.78;100.00;96745.38;4995970;28;20749;-71
2020/12/19 07:49:36;;;;;;;27.30;10.30;;;;;;;0.85;100.00;96755.22;4996896;28;20237;-72
2020/12/19 07:52:11;;;;;;;21.03;10.67;;;;;;;0.93;100.00;96754.66;4996637;28;20215;-72
2020/12/19 07:54:38;;;;;;;54.40;11.53;;;;;;;0.96;100.00;96751.88;4997025;28;20217;-71
2020/12/19 07:57:05;;;;;;;37.20;12.07;;;;;;;0.82;100.00;96754.59;4996262;28;21171;-71
2020/12/19 07:59:32;;;;;;;43.50;12.40;;;;;;;0.94;100.00;96756.31;4997111;28;20210;-72
2020/12/19 08:02:03;;;;;;;63.77;13.13;;;;;;;1.02;100.00;96751.44;4996946;28;20230;-71
2020/12/19 08:04:30;;;;;;;38.03;12.37;;;;;;;0.91;100.00;96759.16;4996726;28;21077;-71
2020/12/19 08:06:57;;;;;;;46.50;12.50;;;;;;;0.85;100.00;96760.41;4995685;28;20276;-72
2020/12/19 08:09:23;;;;;;;29.20;12.23;;;;;;;0.76;100.00;96763.63;4996707;28;20202;-71
2020/12/19 08:11:50;;;;;;;48.03;13.77;;;;;;;0.78;100.00;96776.50;4999549;28;20740;-72
2020/12/19 08:14:17;;;;;;;32.70;12.90;;;;;;;0.75;100.00;96774.94;5000285;28;20205;-71
2020/12/19 08:16:44;;;;;;;23.37;12.40;;;;;;;0.92;100.00;96772.00;4999728;28;20210;-71
2020/12/19 08:19:14;;;;;;;28.17;12.60;;;;;;;1.01;100.00;96778.34;4999889;28;20202;-71
2020/12/19 08:21:43;;;;;;;36.67;12.57;;;;;;;1.05;100.00;96778.00;4999844;28;20257;-71
2020/12/19 08:24:10;;;;;;;39.47;12.57;;;;;;;0.84;100.00;96774.31;5000249;28;20206;-71
2020/12/19 08:26:36;;;;;;;31.10;12.50;;;;;;;0.63;100.00;96769.75;4998771;28;20201;-71
2020/12/19 08:29:04;;;;;;;49.20;12.90;;;;;;;0.75;100.00;96771.50;5000578;28;20203;-71
2020/12/19 08:31:33;;;;;;;24.97;12.57;;;;;;;0.88;100.00;96767.13;4999676;28;20713;-72
2020/12/19 08:33:59;;;;;;;31.70;12.57;;;;;;;0.92;100.00;96772.00;4999770;28;20217;-71
2020/12/19 08:36:26;;;;;;;22.00;11.80;;;;;;;0.87;100.00;96771.50;4998318;28;20202;-72
2020/12/19 08:38:51;;;;;;;28.73;12.00;;;;;;;0.91;100.00;96765.16;5000499;28;20202;-71
2020/12/19 08:41:19;;;;;;;30.43;12.60;;;;;;;0.99;100.00;96765.44;4998555;28;20236;-72
2020/12/19 08:43:45;;;;;;;31.00;11.83;;;;;;;1.16;100.00;96775.50;4999307;28;20304;-71
2020/12/19 08:46:13;;;;;;;43.43;11.60;;;;;;;0.69;100.00;96767.56;4999238;28;20206;-72
2020/12/19 08:48:40;;;;;;;34.27;11.90;;;;;;;0.68;100.00;96772.88;5000040;28;20281;-71
2020/12/19 08:51:08;;;;;;;29.83;12.13;;;;;;;0.89;100.00;96768.78;4998451;28;20222;-72
2020/12/19 08:53:35;;;;;;;24.70;11.60;;;;;;;1.05;100.00;96772.00;4999406;28;20230;-71
2020/12/19 08:56:13;;;;;;;22.87;12.00;;;;;;;1.01;100.00;96773.16;4999652;28;20207;-71
2020/12/19 08:58:40;;;;;;;33.07;11.83;;;;;;;0.84;100.00;96774.31;4999097;28;20210;-72
2020/12/19 09:01:14;;;;;;;29.20;11.17;;;;;;;0.65;100.00;96778.28;4998955;28;20229;-72
2020/12/19 09:03:41;;;;;;;46.60;12.00;;;;;;;0.66;100.00;96774.72;4999744;28;20219;-71
2020/12/19 09:06:09;;;;;;;40.73;11.90;;;;;;;0.80;100.00;96775.47;4998324;28;20660;-72
2020/12/19 09:08:38;;;;;;;37.23;12.17;;;;;;;0.69;100.00;96782.31;4998674;28;21282;-71
2020/12/19 09:11:05;;;;;;;40.13;11.30;;;;;;;0.78;100.00;96781.69;4999037;28;20225;-72
2020/12/19 09:13:31;;;;;;;23.40;11.50;;;;;;;0.91;100.00;96779.91;4999002;28;20206;-72
2020/12/19 09:16:05;;;;;;;30.70;10.77;;;;;;;0.76;100.00;96786.13;4998537;28;20210;-72
2020/12/19 09:18:33;;;;;;;32.37;11.73;;;;;;;0.78;100.00;96792.06;4999088;28;20232;-72
2020/12/19 09:21:01;;;;;;;36.87;11.60;;;;;;;0.70;100.00;96795.16;4998266;28;20226;-72
2020/12/19 09:23:29;;;;;;;56.83;11.47;;;;;;;0.80;100.00;96797.94;4998192;28;20198;-71
2020/12/19 09:25:57;;;;;;;31.27;11.43;;;;;;;0.97;100.00;96797.63;4998758;28;20210;-72
2020/12/19 09:28:24;;;;;;;62.27;11.77;;;;;;;0.85;100.00;96801.91;4998621;28;20279;-71
2020/12/19 09:30:50;;;;;;;22.47;10.13;;;;;;;1.02;100.00;96798.13;4998435;28;20288;-72
2020/12/19 09:33:16;;;;;;;50.90;10.57;;;;;;;0.86;100.00;96800.13;4998786;28;20203;-71
2020/12/19 09:35:43;;;;;;;43.47;11.37;;;;;;;0.75;100.00;96806.06;4998205;28;20210;-71
2020/12/19 09:38:09;;;;;;;27.13;10.50;;;;;;;0.87;100.00;96799.22;4998248;28;20198;-71
2020/12/19 09:40:36;;;;;;;57.70;12.33;;;;;;;0.73;100.00;96799.31;4998903;28;20237;-72
2020/12/19 09:43:03;;;;;;;36.07;11.73;;;;;;;1.01;100.00;96797.31;4998524;28;20230;-71
2020/12/19 09:45:29;;;;;;;45.77;12.27;;;;;;;1.09;100.00;96794.19;4997685;28;20202;-71
2020/12/19 09:47:56;;;;;;;48.43;11.43;;;;;;;1.23;100.00;96805.25;4998826;28;20217;-72
2020/12/19 09:50:23;;;;;;;48.10;11.33;;;;;;;1.19;100.00;96807.22;4998769;28;20225;-72
2020/12/19 09:52:50;;;;;;;55.50;11.30;;;;;;;1.19;100.00;96802.03;4997994;28;20252;-72
2020/12/19 09:55:16;;;;;;;20.63;10.93;;;;;;;1.37;100.00;96805.94;4997581;28;20217;-72
2020/12/19 09:57:42;;;;;;;21.13;11.43;;;;;;;1.54;100.00;96803.00;4999411;28;20787;-72
2020/12/19 10:00:11;;;;;;;24.23;11.73;;;;;;;1.58;100.00;96812.22;4998196;28;20230;-71
2020/12/19 10:02:37;;;;;;;36.43;14.20;;;;;;;1.59;100.00;96806.09;4997759;28;20710;-72
2020/12/19 10:05:03;;;;;;;71.50;14.30;;;;;;;1.29;100.00;96800.47;4997793;28;20298;-72
2020/12/19 10:07:29;;;;;;;36.80;13.37;;;;;;;1.24;100.00;96804.34;4998434;28;20217;-71
2020/12/19 10:09:56;;;;;;;31.93;13.60;;;;;;;1.41;100.00;96803.97;4997550;28;20238;-72
2020/12/19 10:12:22;;;;;;;27.00;13.97;;;;;;;1.58;100.00;96794.06;4998297;28;20202;-72
2020/12/19 10:14:48;;;;;;;36.77;13.97;;;;;;;1.56;100.00;96789.91;4997992;28;20207;-72
2020/12/19 10:17:15;;;;;;;38.50;14.53;;;;;;;1.54;100.00;96791.75;4997551;28;20293;-72
2020/12/19 10:19:41;;;;;;;26.80;14.33;;;;;;;1.66;100.00;96783.13;4997671;28;20206;-71
2020/12/19 10:22:06;;;;;;;36.53;13.70;;;;;;;1.37;100.00;96782.56;4997835;28;20232;-71
2020/12/19 10:24:32;;;;;;;42.33;14.90;;;;;;;1.09;100.00;96789.00;4997619;28;20233;-72
2020/12/19 10:26:59;;;;;;;31.90;14.33;;;;;;;1.13;100.00;96785.25;4997481;28;20687;-72
2020/12/19 10:29:25;;;;;;;37.03;15.40;;;;;;;1.07;100.00;96783.06;4997933;28;20202;-72
2020/12/19 10:31:51;;;;;;;64.70;16.20;;;;;;;1.11;100.00;96787.09;4997981;28;21090;-71
2020/12/19 10:34:18;;;;;;;36.60;15.80;;;;;;;1.20;100.00;96780.34;4997121;28;20313;-71
2020/12/19 10:36:44;;;;;;;38.33;15.63;;;;;;;1.37;100.00;96779.16;4997649;28;20203;-72
2020/12/19 10:39:10;;;;;;;44.63;16.83;;;;;;;1.51;100.00;96777.22;4997096;28;20296;-71
2020/12/19 10:41:36;;;;;;;54.13;19.03;;;;;;;1.60;100.00;96770.56;4997391;28;20237;-72
2020/12/19 10:44:02;;;;;;;32.43;17.00;;;;;;;1.67;100.00;96780.41;4997685;28;20712;-72
2020/12/19 10:46:30;;;;;;;42.33;15.73;;;;;;;1.70;100.00;96771.56;4996965;28;20201;-71
2020/12/19 10:48:56;;;;;;;42.10;14.70;;;;;;;1.83;100.00;96763.59;4997058;28;20930;-71
2020/12/19 10:51:29;;;;;;;52.73;14.17;;;;;;;1.87;100.00;96769.38;4997331;28;20225;-72
2020/12/19 10:53:55;;;;;;;25.30;13.80;;;;;;;1.98;100.00;96761.63;4998042;28;20209;-72
2020/12/19 10:56:22;;;;;;;36.27;13.97;;;;;;;2.12;100.00;96761.47;4996368;28;20199;-72
2020/12/19 10:58:48;;;;;;;28.83;13.83;;;;;;;2.14;100.00;96756.94;4997892;28;20206;-72
2020/12/19 11:01:14;;;;;;;28.57;14.47;;;;;;;2.00;100.00;96749.38;4997024;28;20229;-72
2020/12/19 11:03:41;;;;;;;38.20;14.80;;;;;;;2.03;100.00;96749.13;4997358;28;20292;-72
2020/12/19 11:06:07;;;;;;;35.17;14.00;;;;;;;1.95;100.00;96751.47;4996237;28;20205;-72
2020/12/19 11:08:34;;;;;;;27.47;13.67;;;;;;;1.86;100.00;96739.97;4997777;28;20222;-72
2020/12/19 11:11:00;;;;;;;27.67;13.97;;;;;;;1.96;100.00;96742.72;4996903;28;20230;-71
2020/12/19 11:13:26;;;;;;;27.63;14.53;;;;;;;2.08;100.00;96739.25;4997246;28;20198;-72
2020/12/19 11:15:52;;;;;;;31.90;14.20;;;;;;;2.12;100.00;96732.88;4996601;28;20214;-72
2020/12/19 11:18:18;;;;;;;27.50;14.00;;;;;;;2.24;100.00;96732.78;4998446;28;20713;-71